Time;durP1;ratioP1;P1;durP2;ratioP2;P2;SDS_P1;SDS_P2;PMS_P1;PMS_P2;Temp;Humidity;BMP_temperature;BMP_pressure;BME280_temperature;BME280_humidity;BME280_pressure;Samples;Min_cycle;Max_cycle;Signal;HPM_P1;HPM_P2
2023/08/03 00:01:20;;;;;;;;;;;16.50;99.90;;;;;;4970047;28;19926;-62
2023/08/03 00:03:47;;;;;;;;;;;16.50;99.90;;;;;;4984473;28;19965;-61
2023/08/03 00:06:13;;;;;;;;;;;16.40;99.90;;;;;;4970834;28;19928;-61
2023/08/03 00:08:40;;;;;;;;;;;16.30;99.90;;;;;;4971070;28;19921;-61
2023/08/03 00:11:07;;;;;;;;;;;16.30;99.90;;;;;;4970122;28;19921;-61
2023/08/03 00:13:34;;;;;;;;;;;16.30;99.90;;;;;;4971836;28;19922;-61
2023/08/03 00:16:01;;;;;;;;;;;16.40;99.90;;;;;;4971302;28;20377;-61
2023/08/03 00:18:28;;;;;;;;;;;16.40;99.90;;;;;;4971660;28;20012;-61
2023/08/03 00:20:54;;;;;;;;;;;16.30;99.90;;;;;;4971365;28;19922;-61
2023/08/03 00:23:21;;;;;;;;;;;16.30;99.90;;;;;;4971378;28;19929;-61
2023/08/03 00:25:48;;;;;;;;;;;16.30;99.90;;;;;;4971350;28;19976;-61
2023/08/03 00:28:14;;;;;;;;;;;16.40;99.90;;;;;;4971563;28;19929;-61
2023/08/03 00:30:42;;;;;;;;;;;16.40;99.90;;;;;;4971512;28;19945;-61
2023/08/03 00:33:08;;;;;;;;;;;16.40;99.90;;;;;;4971373;28;19989;-61
2023/08/03 00:35:35;;;;;;;;;;;16.30;99.90;;;;;;4971373;28;20293;-63
2023/08/03 00:38:02;;;;;;;;;;;16.40;99.90;;;;;;4971405;28;19922;-61
2023/08/03 00:40:28;;;;;;;;;;;16.30;99.90;;;;;;4970799;28;19926;-61
2023/08/03 00:42:55;;;;;;;;;;;16.20;99.90;;;;;;4971006;28;19929;-62
2023/08/03 00:45:22;;;;;;;;;;;16.30;99.90;;;;;;4969986;28;20337;-62
2023/08/03 00:47:49;;;;;;;;;;;16.30;99.90;;;;;;4971252;28;19945;-61
2023/08/03 00:50:15;;;;;;;;;;;16.20;99.90;;;;;;4971413;28;19985;-61
2023/08/03 00:52:42;;;;;;;;;;;16.10;99.90;;;;;;4970756;28;19933;-62
2023/08/03 00:55:09;;;;;;;;;;;16.20;99.90;;;;;;4970811;28;19929;-62
2023/08/03 00:57:36;;;;;;;;;;;16.20;99.90;;;;;;4970429;28;19962;-61
2023/08/03 01:00:02;;;;;;;;;;;16.20;99.90;;;;;;4971214;28;20009;-62
2023/08/03 01:02:29;;;;;;;;;;;16.10;99.90;;;;;;4970512;28;19922;-62
2023/08/03 01:04:56;;;;;;;;;;;16.10;99.90;;;;;;4970861;28;19922;-63
2023/08/03 01:07:23;;;;;;;;;;;16.00;99.90;;;;;;4970682;28;19926;-61
2023/08/03 01:09:49;;;;;;;;;;;15.90;99.90;;;;;;4967372;28;19922;-61
2023/08/03 01:12:17;;;;;;;;;;;15.90;99.90;;;;;;4970680;28;19980;-61
2023/08/03 01:14:44;;;;;;;;;;;15.90;99.90;;;;;;4968985;28;19921;-61
2023/08/03 01:17:11;;;;;;;;;;;15.90;99.90;;;;;;4625762;28;9999915;-61
2023/08/03 01:19:37;;;;;;;;;;;15.90;99.90;;;;;;4969434;28;19930;-61
2023/08/03 01:22:04;;;;;;;;;;;15.90;99.90;;;;;;4970598;28;19933;-61
2023/08/03 01:24:31;;;;;;;;;;;15.90;99.90;;;;;;4970710;28;19929;-61
2023/08/03 01:26:59;;;;;;;;;;;15.90;99.90;;;;;;4972599;28;19980;-61
2023/08/03 01:29:25;;;;;;;;;;;15.90;99.90;;;;;;4972238;28;20321;-61
2023/08/03 01:31:56;;;;;;;;;;;15.90;99.90;;;;;;4972264;28;19976;-61
2023/08/03 01:34:23;;;;;;;;;;;15.90;99.90;;;;;;4971145;28;19929;-61
2023/08/03 01:36:51;;;;;;;;;;;15.90;99.90;;;;;;4970634;28;19929;-61
2023/08/03 01:39:18;;;;;;;;;;;15.90;99.90;;;;;;4970368;28;20348;-61
2023/08/03 01:41:45;;;;;;;;;;;15.90;99.90;;;;;;4970179;28;20369;-61
2023/08/03 01:44:28;;;;;;;;;;;15.80;99.90;;;;;;4969357;28;20374;-61
2023/08/03 01:46:55;;;;;;;;;;;15.90;99.90;;;;;;4951218;29;19923;-61
2023/08/03 01:49:23;;;;;;;;;;;15.90;99.90;;;;;;4968163;28;19968;-61
2023/08/03 01:51:50;;;;;;;;;;;15.90;99.90;;;;;;4969416;28;19926;-61
2023/08/03 01:54:16;;;;;;;;;;;15.90;99.90;;;;;;4969722;28;19926;-60
2023/08/03 01:56:43;;;;;;;;;;;15.90;99.90;;;;;;4970518;28;19926;-61
2023/08/03 01:59:10;;;;;;;;;;;16.00;99.90;;;;;;4969660;28;19922;-61
2023/08/03 02:01:37;;;;;;;;;;;16.00;99.90;;;;;;4970036;28;19922;-61
2023/08/03 02:04:04;;;;;;;;;;;16.00;99.90;;;;;;4970938;28;19973;-60
2023/08/03 02:06:31;;;;;;;;;;;16.00;99.90;;;;;;4971878;28;19922;-61
2023/08/03 02:08:58;;;;;;;;;;;16.00;99.90;;;;;;4971583;28;20604;-60
2023/08/03 02:11:25;;;;;;;;;;;16.00;99.90;;;;;;4970304;28;19926;-60
2023/08/03 02:13:52;;;;;;;;;;;16.00;99.90;;;;;;4970274;28;19922;-61
2023/08/03 02:16:18;;;;;;;;;;;16.00;99.90;;;;;;4970317;28;19929;-61
2023/08/03 02:18:51;;;;;;;;;;;16.00;99.90;;;;;;4968700;28;20010;-61
2023/08/03 02:21:18;;;;;;;;;;;16.00;99.90;;;;;;4970300;28;19926;-61
2023/08/03 02:23:45;;;;;;;;;;;16.00;99.90;;;;;;4969613;28;19922;-61
2023/08/03 02:26:12;;;;;;;;;;;16.00;99.90;;;;;;4972013;28;20385;-61
2023/08/03 02:28:38;;;;;;;;;;;16.00;99.90;;;;;;4973765;28;19926;-61
2023/08/03 02:31:05;;;;;;;;;;;16.10;99.90;;;;;;4973422;28;19926;-61
2023/08/03 02:33:32;;;;;;;;;;;16.00;99.90;;;;;;4973646;28;19922;-61
2023/08/03 02:35:59;;;;;;;;;;;16.00;99.90;;;;;;4973755;28;20013;-61
2023/08/03 02:38:25;;;;;;;;;;;16.10;99.90;;;;;;4975855;28;19973;-59
2023/08/03 02:40:52;;;;;;;;;;;16.10;99.90;;;;;;4972875;28;19922;-60
2023/08/03 02:43:19;;;;;;;;;;;16.10;99.90;;;;;;4973263;28;19922;-60
2023/08/03 02:45:46;;;;;;;;;;;16.10;99.90;;;;;;4973223;28;19926;-60
2023/08/03 02:48:12;;;;;;;;;;;16.10;99.90;;;;;;4973742;28;19929;-60
2023/08/03 02:50:39;;;;;;;;;;;16.10;99.90;;;;;;4973046;28;19922;-61
2023/08/03 02:53:06;;;;;;;;;;;16.10;99.90;;;;;;4972838;28;19922;-60
2023/08/03 02:55:32;;;;;;;;;;;16.20;99.90;;;;;;4972773;28;20373;-60
2023/08/03 02:57:59;;;;;;;;;;;16.20;99.90;;;;;;4988319;28;19922;-60
2023/08/03 03:00:26;;;;;;;;;;;16.20;99.90;;;;;;4972988;28;19922;-60
2023/08/03 03:02:52;;;;;;;;;;;16.20;99.90;;;;;;4973078;28;19926;-60
2023/08/03 03:05:19;;;;;;;;;;;16.20;99.90;;;;;;4973126;28;19929;-60
2023/08/03 03:07:46;;;;;;;;;;;16.10;99.90;;;;;;4973293;28;20005;-60
2023/08/03 03:10:13;;;;;;;;;;;16.20;99.90;;;;;;4972663;28;19977;-61
2023/08/03 03:12:40;;;;;;;;;;;16.20;99.90;;;;;;4971437;28;19980;-58
2023/08/03 03:15:07;;;;;;;;;;;16.20;99.90;;;;;;4973061;28;19984;-61
2023/08/03 03:17:34;;;;;;;;;;;16.30;99.90;;;;;;4972619;28;19922;-61
2023/08/03 03:20:01;;;;;;;;;;;16.20;99.90;;;;;;4974219;28;19929;-61
2023/08/03 03:22:27;;;;;;;;;;;16.30;99.90;;;;;;4972475;28;19928;-61
2023/08/03 03:24:54;;;;;;;;;;;16.30;99.90;;;;;;4972962;28;19922;-59
2023/08/03 03:27:21;;;;;;;;;;;16.30;99.90;;;;;;4972531;28;19922;-59
2023/08/03 03:29:47;;;;;;;;;;;16.30;99.90;;;;;;4972422;28;20392;-59
2023/08/03 03:32:14;;;;;;;;;;;16.20;99.90;;;;;;4972327;28;19922;-59
2023/08/03 03:34:41;;;;;;;;;;;16.20;99.90;;;;;;4972647;28;20015;-59
2023/08/03 03:37:07;;;;;;;;;;;16.30;99.90;;;;;;4972236;28;19922;-59
2023/08/03 03:39:34;;;;;;;;;;;16.30;99.90;;;;;;4972508;28;19959;-59
2023/08/03 03:42:01;;;;;;;;;;;16.30;99.90;;;;;;4971937;28;19976;-59
2023/08/03 03:44:27;;;;;;;;;;;16.20;99.90;;;;;;4972512;28;19921;-59
2023/08/03 03:46:54;;;;;;;;;;;16.20;99.90;;;;;;4972785;28;19984;-59
2023/08/03 03:49:21;;;;;;;;;;;16.20;99.90;;;;;;4972100;28;19922;-59
2023/08/03 03:51:48;;;;;;;;;;;16.20;99.90;;;;;;4971688;28;19997;-59
2023/08/03 03:54:14;;;;;;;;;;;16.20;99.90;;;;;;4972189;28;19922;-59
2023/08/03 03:56:41;;;;;;;;;;;16.20;99.90;;;;;;4972339;28;19956;-59
2023/08/03 03:59:08;;;;;;;;;;;16.20;99.90;;;;;;4972281;28;20004;-59
2023/08/03 04:01:35;;;;;;;;;;;16.30;99.90;;;;;;4972229;28;19933;-59
2023/08/03 04:04:01;;;;;;;;;;;16.20;99.90;;;;;;4964563;28;19929;-59
2023/08/03 04:06:28;;;;;;;;;;;16.20;99.90;;;;;;4952906;28;19927;-59
2023/08/03 04:08:55;;;;;;;;;;;16.20;99.90;;;;;;4970197;28;19930;-59
2023/08/03 04:11:22;;;;;;;;;;;16.10;99.90;;;;;;4972094;28;19921;-59
2023/08/03 04:13:48;;;;;;;;;;;16.10;99.90;;;;;;4971534;28;19926;-59
2023/08/03 04:16:15;;;;;;;;;;;16.10;99.90;;;;;;4972044;28;19944;-59
2023/08/03 04:18:42;;;;;;;;;;;16.10;99.90;;;;;;4971988;28;19926;-60
2023/08/03 04:21:09;;;;;;;;;;;16.00;99.90;;;;;;4971995;28;19930;-60
2023/08/03 04:23:36;;;;;;;;;;;16.00;99.90;;;;;;4971725;28;19922;-60
2023/08/03 04:26:03;;;;;;;;;;;16.00;99.90;;;;;;4971678;28;19922;-60
2023/08/03 04:28:29;;;;;;;;;;;16.00;99.90;;;;;;4971564;28;19928;-60
2023/08/03 04:30:56;;;;;;;;;;;16.00;99.90;;;;;;4971885;28;19922;-60
2023/08/03 04:33:23;;;;;;;;;;;16.00;99.90;;;;;;4971090;28;19988;-59
2023/08/03 04:35:50;;;;;;;;;;;15.90;99.90;;;;;;4971807;28;19922;-60
2023/08/03 04:38:16;;;;;;;;;;;15.90;99.90;;;;;;4971508;28;19976;-59
2023/08/03 04:40:43;;;;;;;;;;;15.90;99.90;;;;;;4971319;28;19922;-59
2023/08/03 04:43:10;;;;;;;;;;;15.90;99.90;;;;;;4970763;28;19977;-60
2023/08/03 04:45:36;;;;;;;;;;;15.90;99.90;;;;;;4970530;28;19934;-59
2023/08/03 04:48:22;;;;;;;;;;;15.90;99.90;;;;;;4985792;28;19926;-59
2023/08/03 04:51:06;;;;;;;;;;;16.00;99.90;;;;;;4970274;28;19925;-59
2023/08/03 04:53:33;;;;;;;;;;;16.00;99.90;;;;;;4971234;28;19926;-59
2023/08/03 04:55:59;;;;;;;;;;;15.90;99.90;;;;;;4970730;28;19969;-60
2023/08/03 04:58:26;;;;;;;;;;;15.90;99.90;;;;;;4971450;28;19984;-60
2023/08/03 05:00:53;;;;;;;;;;;15.90;99.90;;;;;;4970854;28;19965;-59
2023/08/03 05:03:20;;;;;;;;;;;15.90;99.90;;;;;;4970612;28;19977;-60
2023/08/03 05:05:46;;;;;;;;;;;15.90;99.90;;;;;;4970595;28;19945;-59
2023/08/03 05:08:13;;;;;;;;;;;15.90;99.90;;;;;;4970450;28;19968;-60
2023/08/03 05:10:40;;;;;;;;;;;15.90;99.90;;;;;;4969783;28;20304;-60
2023/08/03 05:13:06;;;;;;;;;;;15.90;99.90;;;;;;4970726;28;20346;-60
2023/08/03 05:15:33;;;;;;;;;;;15.90;99.90;;;;;;4970238;28;19922;-61
2023/08/03 05:18:02;;;;;;;;;;;16.00;99.90;;;;;;4970577;28;20017;-61
2023/08/03 05:20:29;;;;;;;;;;;16.00;99.90;;;;;;4971393;28;19932;-61
2023/08/03 05:22:56;;;;;;;;;;;16.10;99.90;;;;;;4970707;28;19930;-59
2023/08/03 05:25:22;;;;;;;;;;;16.00;99.90;;;;;;4970836;28;19925;-60
2023/08/03 05:27:49;;;;;;;;;;;16.00;99.90;;;;;;4970666;28;19938;-58
2023/08/03 05:30:16;;;;;;;;;;;16.00;99.90;;;;;;4970310;28;19975;-60
2023/08/03 05:32:45;;;;;;;;;;;16.00;99.90;;;;;;4970207;28;19929;-61
2023/08/03 05:35:14;;;;;;;;;;;16.10;99.90;;;;;;4970136;28;20393;-60
2023/08/03 05:37:41;;;;;;;;;;;16.00;99.90;;;;;;4969691;28;19965;-60
2023/08/03 05:40:08;;;;;;;;;;;16.00;99.90;;;;;;4970422;28;19930;-60
2023/08/03 05:42:38;;;;;;;;;;;15.90;99.90;;;;;;4969870;28;19937;-60
2023/08/03 05:45:06;;;;;;;;;;;16.00;99.90;;;;;;4970400;28;19925;-60
2023/08/03 05:47:33;;;;;;;;;;;15.90;99.90;;;;;;4968726;28;20440;-60
2023/08/03 05:50:03;;;;;;;;;;;15.90;99.90;;;;;;4970195;28;20009;-60
2023/08/03 05:52:29;;;;;;;;;;;15.90;99.90;;;;;;4968016;28;19922;-60
2023/08/03 05:54:56;;;;;;;;;;;16.00;99.90;;;;;;4957468;28;20334;-60
2023/08/03 05:57:22;;;;;;;;;;;16.00;99.90;;;;;;4969774;28;19977;-60
2023/08/03 05:59:49;;;;;;;;;;;16.00;99.90;;;;;;4971258;28;20263;-60
2023/08/03 06:02:32;;;;;;;;;;;16.00;99.90;;;;;;4968354;28;19957;-61
2023/08/03 06:04:59;;;;;;;;;;;16.00;99.90;;;;;;4970062;28;19930;-60
2023/08/03 06:07:26;;;;;;;;;;;16.00;99.90;;;;;;4969408;28;19955;-60
2023/08/03 06:09:53;;;;;;;;;;;16.00;99.90;;;;;;4969576;28;19964;-61
2023/08/03 06:12:19;;;;;;;;;;;16.10;99.90;;;;;;4969437;28;20020;-60
2023/08/03 06:14:46;;;;;;;;;;;16.20;99.90;;;;;;4969830;28;20385;-60
2023/08/03 06:17:12;;;;;;;;;;;16.10;99.90;;;;;;4969455;28;19921;-60
2023/08/03 06:19:40;;;;;;;;;;;16.10;99.90;;;;;;4968911;28;19922;-60
2023/08/03 06:22:13;;;;;;;;;;;16.00;99.90;;;;;;4967827;28;19980;-60
2023/08/03 06:24:39;;;;;;;;;;;16.10;99.90;;;;;;4968503;28;19929;-60
2023/08/03 06:27:06;;;;;;;;;;;16.10;99.90;;;;;;4967974;28;19929;-61
2023/08/03 06:29:33;;;;;;;;;;;16.10;99.90;;;;;;4970063;28;19922;-60
2023/08/03 06:32:00;;;;;;;;;;;16.20;99.90;;;;;;4969093;28;19979;-62
2023/08/03 06:34:27;;;;;;;;;;;16.10;99.90;;;;;;4969871;28;19945;-60
2023/08/03 06:36:54;;;;;;;;;;;16.20;99.90;;;;;;4969747;28;19926;-62
2023/08/03 06:39:21;;;;;;;;;;;16.30;99.90;;;;;;4969567;28;19989;-60
2023/08/03 06:41:48;;;;;;;;;;;16.10;99.90;;;;;;4969784;28;19957;-60
2023/08/03 06:44:15;;;;;;;;;;;16.20;99.90;;;;;;4968147;28;19922;-59
2023/08/03 06:46:42;;;;;;;;;;;16.20;99.90;;;;;;4969007;28;19922;-60
2023/08/03 06:49:08;;;;;;;;;;;16.20;99.90;;;;;;4968391;28;19926;-60
2023/08/03 06:51:36;;;;;;;;;;;16.20;99.90;;;;;;4968563;28;19922;-60
2023/08/03 06:54:03;;;;;;;;;;;16.30;99.90;;;;;;4623146;28;9999743;-60
2023/08/03 06:56:31;;;;;;;;;;;16.30;99.90;;;;;;4966491;28;19926;-60
2023/08/03 06:58:58;;;;;;;;;;;16.30;99.90;;;;;;4965977;28;20397;-60
2023/08/03 07:01:25;;;;;;;;;;;16.30;99.90;;;;;;4966102;28;20570;-60
2023/08/03 07:03:52;;;;;;;;;;;16.30;99.90;;;;;;4960906;28;19929;-60
2023/08/03 07:06:18;;;;;;;;;;;16.40;99.90;;;;;;4966149;28;19930;-60
2023/08/03 07:08:45;;;;;;;;;;;16.40;99.90;;;;;;4966409;28;19928;-60
2023/08/03 07:11:12;;;;;;;;;;;16.40;99.90;;;;;;4966821;28;19926;-60
2023/08/03 07:13:39;;;;;;;;;;;16.40;99.90;;;;;;4957951;28;19930;-60
2023/08/03 07:16:08;;;;;;;;;;;16.50;99.90;;;;;;4969988;28;20263;-60
2023/08/03 07:18:36;;;;;;;;;;;16.50;99.90;;;;;;4969742;28;19936;-60
2023/08/03 07:21:06;;;;;;;;;;;16.60;99.90;;;;;;4968983;28;19922;-61
2023/08/03 07:23:32;;;;;;;;;;;16.60;99.90;;;;;;4969420;28;20549;-60
2023/08/03 07:25:59;;;;;;;;;;;16.50;99.90;;;;;;4971682;28;19926;-61
2023/08/03 07:28:26;;;;;;;;;;;16.60;99.90;;;;;;4971111;28;19922;-61
2023/08/03 07:30:53;;;;;;;;;;;16.70;99.90;;;;;;4971173;28;20362;-60
2023/08/03 07:33:19;;;;;;;;;;;16.70;99.90;;;;;;4972055;28;19980;-60
2023/08/03 07:35:47;;;;;;;;;;;16.50;99.90;;;;;;4971959;28;19930;-60
2023/08/03 07:38:14;;;;;;;;;;;16.60;99.90;;;;;;4971417;28;20021;-60
2023/08/03 07:40:41;;;;;;;;;;;16.60;99.90;;;;;;4969814;28;20332;-60
2023/08/03 07:43:07;;;;;;;;;;;16.70;99.90;;;;;;4970279;28;20337;-60
2023/08/03 07:45:36;;;;;;;;;;;16.70;99.90;;;;;;4969870;28;19926;-60
2023/08/03 07:48:06;;;;;;;;;;;16.70;99.90;;;;;;4970329;28;19926;-60
2023/08/03 07:50:33;;;;;;;;;;;16.90;99.90;;;;;;4969676;28;20436;-60
2023/08/03 07:52:59;;;;;;;;;;;17.00;99.90;;;;;;4962115;28;19926;-60
2023/08/03 07:55:26;;;;;;;;;;;17.10;99.90;;;;;;4969292;28;20006;-59
2023/08/03 07:57:53;;;;;;;;;;;17.10;99.90;;;;;;4970777;28;19926;-59
2023/08/03 08:00:20;;;;;;;;;;;17.10;99.90;;;;;;4971341;28;19930;-59
2023/08/03 08:02:47;;;;;;;;;;;17.20;99.90;;;;;;4971401;28;19925;-59
2023/08/03 08:05:13;;;;;;;;;;;17.20;99.90;;;;;;4971610;28;20001;-59
2023/08/03 08:07:40;;;;;;;;;;;17.20;99.90;;;;;;4971506;28;19969;-60
2023/08/03 08:10:07;;;;;;;;;;;17.30;99.90;;;;;;4971425;28;19949;-59
2023/08/03 08:12:34;;;;;;;;;;;17.40;99.90;;;;;;4969987;28;19922;-59
2023/08/03 08:15:01;;;;;;;;;;;17.40;99.90;;;;;;4971583;28;20001;-59
2023/08/03 08:17:27;;;;;;;;;;;17.50;99.90;;;;;;4971135;28;19922;-59
2023/08/03 08:19:55;;;;;;;;;;;17.50;99.90;;;;;;4971446;28;19977;-59
2023/08/03 08:22:22;;;;;;;;;;;17.50;99.90;;;;;;4971178;28;19969;-59
2023/08/03 08:24:49;;;;;;;;;;;17.50;99.90;;;;;;4970724;28;19980;-61
2023/08/03 08:27:16;;;;;;;;;;;17.60;99.90;;;;;;4970990;28;20150;-59
2023/08/03 08:29:46;;;;;;;;;;;17.50;99.90;;;;;;4971332;28;19944;-59
2023/08/03 08:32:13;;;;;;;;;;;17.50;99.90;;;;;;4971052;28;19922;-60
2023/08/03 08:34:39;;;;;;;;;;;17.30;99.90;;;;;;4971494;28;19926;-60
2023/08/03 08:37:06;;;;;;;;;;;17.30;99.90;;;;;;4971117;28;19965;-60
2023/08/03 08:39:33;;;;;;;;;;;17.20;99.90;;;;;;4971639;28;19925;-59
2023/08/03 08:42:09;;;;;;;;;;;17.30;99.90;;;;;;4970466;28;19929;-59
2023/08/03 08:44:36;;;;;;;;;;;17.40;99.90;;;;;;4971368;28;19977;-60
2023/08/03 08:47:03;;;;;;;;;;;17.60;99.90;;;;;;4970892;28;19976;-60
2023/08/03 08:49:29;;;;;;;;;;;17.80;99.90;;;;;;4971232;28;19925;-60
2023/08/03 08:51:59;;;;;;;;;;;17.90;99.90;;;;;;4968693;28;19973;-60
2023/08/03 08:54:33;;;;;;;;;;;18.10;99.90;;;;;;4969452;28;19922;-60
2023/08/03 08:57:02;;;;;;;;;;;18.10;99.90;;;;;;4971245;28;19922;-60
2023/08/03 08:59:37;;;;;;;;;;;18.10;99.90;;;;;;4968098;28;19925;-60
2023/08/03 09:02:04;;;;;;;;;;;18.30;99.90;;;;;;4970665;28;19926;-59
2023/08/03 09:04:34;;;;;;;;;;;18.40;99.90;;;;;;4969488;28;20336;-59
2023/08/03 09:07:02;;;;;;;;;;;18.40;99.90;;;;;;4970908;28;19922;-59
2023/08/03 09:09:33;;;;;;;;;;;18.50;99.90;;;;;;4957394;28;20385;-59
2023/08/03 09:12:00;;;;;;;;;;;18.40;99.90;;;;;;4970483;28;20282;-60
2023/08/03 09:14:27;;;;;;;;;;;18.30;99.90;;;;;;4968881;28;20433;-59
2023/08/03 09:16:54;;;;;;;;;;;18.10;99.90;;;;;;4969403;28;19921;-60
2023/08/03 09:19:36;;;;;;;;;;;17.90;99.90;;;;;;4970086;28;19929;-60
2023/08/03 09:22:03;;;;;;;;;;;18.00;99.90;;;;;;4969409;28;20377;-59
2023/08/03 09:24:30;;;;;;;;;;;18.20;99.90;;;;;;4625740;28;9999928;-60
2023/08/03 09:27:00;;;;;;;;;;;18.20;99.90;;;;;;4969572;28;19922;-60
2023/08/03 09:29:27;;;;;;;;;;;18.30;99.90;;;;;;4970551;28;20369;-59
2023/08/03 09:32:01;;;;;;;;;;;18.30;99.90;;;;;;4953007;28;19922;-59
2023/08/03 09:34:39;;;;;;;;;;;18.10;99.90;;;;;;4969744;28;19925;-60
2023/08/03 09:37:08;;;;;;;;;;;18.20;99.90;;;;;;4970338;28;19926;-60
2023/08/03 09:39:37;;;;;;;;;;;18.40;99.90;;;;;;4969708;28;19949;-60
2023/08/03 09:42:05;;;;;;;;;;;18.60;99.90;;;;;;4969316;28;20386;-60
2023/08/03 09:44:33;;;;;;;;;;;18.90;99.90;;;;;;4966616;28;19926;-60
2023/08/03 09:47:01;;;;;;;;;;;19.10;99.90;;;;;;4967094;28;19926;-67
2023/08/03 09:49:28;;;;;;;;;;;19.20;99.90;;;;;;4965659;28;20028;-60
2023/08/03 09:51:57;;;;;;;;;;;19.20;99.90;;;;;;4966497;28;19981;-60
2023/08/03 09:54:26;;;;;;;;;;;19.30;99.90;;;;;;4965248;28;19980;-60
2023/08/03 09:56:54;;;;;;;;;;;19.20;99.90;;;;;;4966846;28;20408;-60
2023/08/03 09:59:24;;;;;;;;;;;19.10;99.90;;;;;;4966675;28;19926;-60
2023/08/03 10:01:51;;;;;;;;;;;18.90;99.90;;;;;;4966800;28;19936;-60
2023/08/03 10:04:17;;;;;;;;;;;18.90;99.90;;;;;;4965426;28;20361;-60
2023/08/03 10:06:44;;;;;;;;;;;18.80;99.90;;;;;;4965576;28;20300;-60
2023/08/03 10:09:16;;;;;;;;;;;18.80;99.90;;;;;;4965617;28;19933;-61
2023/08/03 10:11:43;;;;;;;;;;;18.90;99.90;;;;;;4965009;28;19933;-60
2023/08/03 10:14:15;;;;;;;;;;;19.00;99.90;;;;;;4965653;28;19925;-60
2023/08/03 10:16:42;;;;;;;;;;;19.20;99.90;;;;;;4966580;28;19926;-60
2023/08/03 10:19:09;;;;;;;;;;;19.30;99.90;;;;;;4966071;28;19933;-61
2023/08/03 10:21:36;;;;;;;;;;;19.50;99.90;;;;;;4965452;28;20376;-60
2023/08/03 10:24:16;;;;;;;;;;;19.40;99.90;;;;;;4977356;28;19922;-58
2023/08/03 10:26:43;;;;;;;;;;;19.40;99.90;;;;;;4966027;28;19926;-58
2023/08/03 10:29:10;;;;;;;;;;;19.40;99.90;;;;;;4966845;28;19925;-58
2023/08/03 10:31:53;;;;;;;;;;;19.30;99.90;;;;;;4966872;28;19988;-58
2023/08/03 10:34:26;;;;;;;;;;;19.30;99.90;;;;;;4966963;28;19929;-58
2023/08/03 10:36:55;;;;;;;;;;;19.30;99.90;;;;;;4965814;28;20056;-59
2023/08/03 10:39:40;;;;;;;;;;;19.30;99.90;;;;;;4966766;28;19928;-58
2023/08/03 10:42:20;;;;;;;;;;;19.40;99.90;;;;;;4966141;28;19926;-59
2023/08/03 10:44:47;;;;;;;;;;;19.80;99.90;;;;;;4966530;28;20041;-58
2023/08/03 10:47:20;;;;;;;;;;;20.20;99.90;;;;;;4967743;28;19926;-58
2023/08/03 10:49:49;;;;;;;;;;;20.20;99.90;;;;;;4970360;28;20401;-58
2023/08/03 10:52:20;;;;;;;;;;;20.00;99.90;;;;;;4969847;28;20432;-59
2023/08/03 10:54:47;;;;;;;;;;;20.00;99.90;;;;;;4970361;28;19925;-59
2023/08/03 10:57:18;;;;;;;;;;;20.20;99.90;;;;;;4969852;28;19930;-60
2023/08/03 10:59:46;;;;;;;;;;;20.30;99.90;;;;;;4969906;28;19946;-60
2023/08/03 11:02:14;;;;;;;;;;;20.20;99.90;;;;;;4969485;28;20384;-57
2023/08/03 11:04:41;;;;;;;;;;;20.10;99.90;;;;;;4966135;28;19928;-58
2023/08/03 11:07:08;;;;;;;;;;;20.00;99.90;;;;;;4967534;28;19937;-57
2023/08/03 11:09:53;;;;;;;;;;;20.00;99.90;;;;;;4970024;28;20168;-62
2023/08/03 11:12:27;;;;;;;;;;;20.00;99.90;;;;;;4967909;28;19926;-58
2023/08/03 11:14:54;;;;;;;;;;;19.90;99.90;;;;;;4970190;28;19926;-59
2023/08/03 11:17:22;;;;;;;;;;;19.80;99.90;;;;;;4969033;28;19925;-57
2023/08/03 11:19:49;;;;;;;;;;;19.80;99.90;;;;;;4969512;28;20590;-58
2023/08/03 11:22:16;;;;;;;;;;;19.90;99.90;;;;;;4958495;28;19922;-58
2023/08/03 11:24:43;;;;;;;;;;;20.10;99.90;;;;;;4968331;28;19930;-58
2023/08/03 11:27:11;;;;;;;;;;;20.20;99.90;;;;;;4967141;28;19992;-58
2023/08/03 11:29:38;;;;;;;;;;;20.40;99.90;;;;;;4966873;28;20457;-58
2023/08/03 11:32:08;;;;;;;;;;;20.40;99.90;;;;;;4970372;28;19922;-58
2023/08/03 11:34:35;;;;;;;;;;;20.30;99.90;;;;;;4969382;28;20005;-58
2023/08/03 11:37:02;;;;;;;;;;;20.20;99.90;;;;;;4969153;28;19981;-58
2023/08/03 11:39:28;;;;;;;;;;;20.20;99.90;;;;;;4968840;28;19965;-58
2023/08/03 11:41:55;;;;;;;;;;;20.20;99.90;;;;;;4974752;28;19926;-58
2023/08/03 11:44:22;;;;;;;;;;;20.30;99.90;;;;;;4967388;28;19982;-59
2023/08/03 11:46:49;;;;;;;;;;;20.40;99.90;;;;;;4967691;28;20009;-58
2023/08/03 11:49:17;;;;;;;;;;;20.60;99.90;;;;;;4967895;28;19980;-58
2023/08/03 11:51:46;;;;;;;;;;;20.60;99.90;;;;;;4967864;28;19929;-59
2023/08/03 11:54:21;;;;;;;;;;;20.70;99.90;;;;;;4968909;28;19968;-59
2023/08/03 11:56:48;;;;;;;;;;;20.60;99.90;;;;;;4966077;28;19922;-58
2023/08/03 11:59:15;;;;;;;;;;;20.50;99.90;;;;;;4963504;28;19922;-59
2023/08/03 12:01:45;;;;;;;;;;;20.40;99.90;;;;;;4969301;28;19992;-59
2023/08/03 12:04:13;;;;;;;;;;;20.50;99.90;;;;;;4968506;28;19978;-59
2023/08/03 12:06:50;;;;;;;;;;;20.50;99.90;;;;;;4968601;28;20046;-58
2023/08/03 12:09:18;;;;;;;;;;;20.40;99.90;;;;;;4977554;28;19921;-59
2023/08/03 12:11:45;;;;;;;;;;;20.40;99.90;;;;;;4975365;28;19929;-58
2023/08/03 12:14:17;;;;;;;;;;;20.40;99.90;;;;;;4973057;28;19973;-57
2023/08/03 12:16:44;;;;;;;;;;;20.60;99.90;;;;;;4978773;28;20460;-59
2023/08/03 12:19:11;;;;;;;;;;;20.60;99.90;;;;;;4971277;28;19930;-59
2023/08/03 12:21:39;;;;;;;;;;;20.70;99.90;;;;;;4968513;28;20167;-59
2023/08/03 12:24:06;;;;;;;;;;;20.70;99.90;;;;;;4969050;28;20344;-60
2023/08/03 12:26:36;;;;;;;;;;;20.70;99.90;;;;;;4977790;28;19996;-59
2023/08/03 12:29:04;;;;;;;;;;;20.60;99.90;;;;;;4973751;28;19932;-59
2023/08/03 12:31:33;;;;;;;;;;;20.60;99.90;;;;;;4976444;28;19929;-59
2023/08/03 12:34:00;;;;;;;;;;;20.40;99.90;;;;;;4974088;28;20272;-58
2023/08/03 12:36:27;;;;;;;;;;;20.30;99.90;;;;;;4979352;28;19922;-58
2023/08/03 12:38:54;;;;;;;;;;;20.20;99.90;;;;;;4968208;28;19926;-59
2023/08/03 12:41:20;;;;;;;;;;;20.10;99.90;;;;;;4967442;28;19929;-58
2023/08/03 12:43:47;;;;;;;;;;;20.00;99.90;;;;;;4968552;28;19929;-59
2023/08/03 12:46:14;;;;;;;;;;;20.00;99.90;;;;;;4971090;28;20044;-59
2023/08/03 12:48:41;;;;;;;;;;;20.00;99.90;;;;;;4972545;28;19930;-59
2023/08/03 12:51:11;;;;;;;;;;;19.90;99.90;;;;;;4963660;28;19922;-59
2023/08/03 12:53:39;;;;;;;;;;;19.90;99.90;;;;;;4984266;28;19922;-59
2023/08/03 12:56:05;;;;;;;;;;;19.90;99.90;;;;;;4972244;28;19930;-59
2023/08/03 12:58:32;;;;;;;;;;;20.00;99.90;;;;;;4978028;28;19949;-59
2023/08/03 13:00:59;;;;;;;;;;;20.20;99.90;;;;;;4971249;28;20059;-58
2023/08/03 13:03:26;;;;;;;;;;;20.20;99.90;;;;;;4976340;28;20404;-58
2023/08/03 13:05:54;;;;;;;;;;;20.30;99.90;;;;;;4973534;28;20408;-60
2023/08/03 13:08:22;;;;;;;;;;;20.40;99.90;;;;;;4973692;28;20020;-59
2023/08/03 13:10:49;;;;;;;;;;;20.30;99.90;;;;;;4972953;28;20021;-59
2023/08/03 13:13:18;;;;;;;;;;;20.40;99.90;;;;;;4972653;28;20016;-60
2023/08/03 13:15:46;;;;;;;;;;;20.50;99.90;;;;;;4971337;28;19953;-59
2023/08/03 13:18:13;;;;;;;;;;;20.60;99.90;;;;;;4977629;28;19925;-59
2023/08/03 13:20:40;;;;;;;;;;;20.70;99.90;;;;;;4973190;28;19930;-59
2023/08/03 13:23:07;;;;;;;;;;;20.90;99.90;;;;;;4971612;28;19974;-59
2023/08/03 13:25:34;;;;;;;;;;;21.10;99.90;;;;;;4969746;28;20436;-59
2023/08/03 13:28:03;;;;;;;;;;;21.20;99.90;;;;;;4966674;28;20121;-60
2023/08/03 13:30:29;;;;;;;;;;;21.30;99.90;;;;;;4967437;28;20289;-59
2023/08/03 13:32:56;;;;;;;;;;;21.20;99.90;;;;;;4972647;28;19965;-60
2023/08/03 13:35:23;;;;;;;;;;;21.30;99.90;;;;;;4975725;28;19929;-59
2023/08/03 13:37:51;;;;;;;;;;;21.30;99.90;;;;;;4971622;28;19965;-60
2023/08/03 13:40:18;;;;;;;;;;;21.40;99.90;;;;;;4977288;28;20417;-60
2023/08/03 13:42:45;;;;;;;;;;;21.40;99.90;;;;;;4973010;28;19932;-60
2023/08/03 13:45:12;;;;;;;;;;;21.40;99.90;;;;;;4979308;28;20457;-60
2023/08/03 13:47:39;;;;;;;;;;;21.50;99.90;;;;;;4968373;28;19937;-60
2023/08/03 13:50:06;;;;;;;;;;;21.50;99.90;;;;;;4977766;28;19932;-60
2023/08/03 13:52:33;;;;;;;;;;;21.60;99.90;;;;;;4972087;28;20012;-60
2023/08/03 13:55:00;;;;;;;;;;;21.70;99.90;;;;;;4974814;28;19989;-59
2023/08/03 13:57:27;;;;;;;;;;;21.80;99.90;;;;;;4971626;28;20397;-60
2023/08/03 13:59:56;;;;;;;;;;;22.20;99.90;;;;;;4977239;28;19925;-61
2023/08/03 14:02:26;;;;;;;;;;;22.30;99.90;;;;;;4970299;28;20211;-59
2023/08/03 14:04:55;;;;;;;;;;;22.30;99.90;;;;;;4966941;28;19977;-59
2023/08/03 14:07:27;;;;;;;;;;;22.30;99.90;;;;;;4973954;28;19953;-59
2023/08/03 14:09:56;;;;;;;;;;;22.30;99.90;;;;;;4970289;28;19969;-59
2023/08/03 14:12:26;;;;;;;;;;;22.30;99.90;;;;;;4972358;28;19921;-59
2023/08/03 14:15:13;;;;;;;;;;;22.20;99.90;;;;;;4966299;28;19925;-59
2023/08/03 14:17:43;;;;;;;;;;;22.10;99.90;;;;;;4974615;28;20328;-60
2023/08/03 14:20:12;;;;;;;;;;;22.10;98.80;;;;;;4967251;28;19922;-59